createdAt,value
2018-09-02T00:00:19.728Z,25.24
2018-09-02T00:01:19.655Z,25.23
2018-09-02T00:02:19.589Z,25.27
2018-09-02T00:03:19.541Z,25.24
2018-09-02T00:04:19.475Z,25.21
2018-09-02T00:05:19.406Z,25.27
2018-09-02T00:06:19.341Z,25.27
2018-09-02T00:07:19.288Z,25.25
2018-09-02T00:08:19.222Z,25.24
2018-09-02T00:09:19.153Z,25.14
2018-09-02T00:10:19.095Z,25.18
2018-09-02T00:11:19.028Z,25.23
2018-09-02T00:12:18.979Z,25.18
2018-09-02T00:13:18.902Z,25.15
2018-09-02T00:14:18.842Z,25.14
2018-09-02T00:15:18.777Z,25.14
2018-09-02T00:16:18.722Z,25.09
2018-09-02T00:17:18.644Z,25.14
2018-09-02T00:18:18.578Z,25.09
2018-09-02T00:19:18.530Z,25.05
2018-09-02T00:20:18.496Z,24.99
2018-09-02T00:21:18.405Z,24.98
2018-09-02T00:22:18.338Z,24.96
2018-09-02T00:23:18.288Z,24.98
2018-09-02T00:24:18.235Z,24.98
2018-09-02T00:25:18.183Z,24.99
2018-09-02T00:26:18.081Z,25.08
2018-09-02T00:27:18.035Z,25.06
2018-09-02T00:28:18.554Z,25.05
2018-09-02T00:29:17.897Z,25.03
2018-09-02T00:30:17.841Z,25.09
2018-09-02T00:31:17.776Z,25.17
2018-09-02T00:32:17.699Z,25.21
2018-09-02T00:33:17.739Z,25.17
2018-09-02T00:34:17.580Z,25.23
2018-09-02T00:35:17.518Z,25.18
2018-09-02T00:36:17.459Z,25.30
2018-09-02T00:37:17.384Z,25.21
2018-09-02T00:38:17.322Z,25.24
2018-09-02T00:39:17.265Z,25.20
2018-09-02T00:40:17.206Z,25.21
2018-09-02T00:41:17.127Z,25.10
2018-09-02T00:42:17.070Z,25.06
2018-09-02T00:43:17.003Z,25.05
2018-09-02T00:44:16.947Z,25.05
2018-09-02T00:45:16.884Z,25.00
2018-09-02T00:46:16.810Z,25.06
2018-09-02T00:47:16.749Z,24.96
2018-09-02T00:48:16.690Z,24.98
2018-09-02T00:49:16.632Z,24.90
2018-09-02T00:50:16.563Z,24.77
2018-09-02T00:51:16.505Z,24.77
2018-09-02T00:52:16.431Z,24.77
2018-09-02T00:53:16.370Z,24.80
2018-09-02T00:54:16.313Z,24.77
2018-09-02T00:55:16.255Z,24.78
2018-09-02T00:56:16.176Z,24.80
2018-09-02T00:57:16.115Z,24.76
2018-09-02T00:58:16.078Z,24.87
2018-09-02T00:59:15.986Z,24.88
2018-09-02T01:00:15.932Z,24.77
2018-09-02T01:01:15.871Z,24.68
2018-09-02T01:02:15.808Z,24.71
2018-09-02T01:03:15.747Z,24.71
2018-09-02T01:04:15.686Z,24.71
2018-09-02T01:05:15.602Z,24.71
2018-09-02T01:06:15.549Z,24.71
2018-09-02T01:07:15.474Z,24.73
2018-09-02T01:08:15.428Z,24.71
2018-09-02T01:09:15.361Z,24.64
2018-09-02T01:10:15.286Z,24.58
2018-09-02T01:11:15.246Z,24.52
2018-09-02T01:12:15.174Z,24.37
2018-09-02T01:13:15.105Z,24.40
2018-09-02T01:14:15.048Z,24.31
2018-09-02T01:15:14.982Z,24.42
2018-09-02T01:16:14.914Z,24.47
2018-09-02T01:17:14.855Z,24.49
2018-09-02T01:18:14.776Z,24.42
2018-09-02T01:19:14.738Z,24.39
2018-09-02T01:20:14.666Z,24.35
2018-09-02T01:21:14.597Z,24.40
2018-09-02T01:22:14.537Z,24.35
2018-09-02T01:23:14.476Z,24.43
2018-09-02T01:24:14.400Z,24.32
2018-09-02T01:25:14.342Z,24.46
2018-09-02T01:26:14.287Z,24.47
2018-09-02T01:27:14.219Z,24.39
2018-09-02T01:28:14.146Z,24.39
2018-09-02T01:29:14.106Z,24.39
2018-09-02T01:30:14.022Z,24.28
2018-09-02T01:31:13.948Z,24.27
2018-09-02T01:32:13.897Z,24.30
2018-09-02T01:33:13.835Z,24.20
2018-09-02T01:34:13.772Z,24.22
2018-09-02T01:35:13.709Z,24.28
2018-09-02T01:36:13.652Z,24.12
2018-09-02T01:37:13.576Z,24.10
2018-09-02T01:38:13.516Z,24.09
2018-09-02T01:39:13.449Z,24.08
2018-09-02T01:40:13.393Z,24.20
2018-09-02T01:41:13.326Z,24.12
2018-09-02T01:42:13.258Z,24.20
2018-09-02T01:43:13.190Z,24.16
2018-09-02T01:44:13.137Z,24.25
2018-09-02T01:45:13.075Z,24.21
2018-09-02T01:46:13.005Z,24.22
2018-09-02T01:47:12.948Z,24.31
2018-09-02T01:48:12.872Z,24.30
2018-09-02T01:49:12.831Z,24.24
2018-09-02T01:50:12.755Z,24.16
2018-09-02T01:51:12.692Z,24.18
2018-09-02T01:52:12.625Z,24.18
2018-09-02T01:53:12.585Z,24.27
2018-09-02T01:54:12.490Z,24.18
2018-09-02T01:55:12.426Z,24.03
2018-09-02T01:56:12.372Z,24.00
2018-09-02T01:57:12.305Z,23.94
2018-09-02T01:58:12.244Z,23.93
2018-09-02T01:59:12.169Z,23.97
2018-09-02T02:00:12.116Z,23.95
2018-09-02T02:01:12.055Z,23.90
2018-09-02T02:02:11.987Z,23.91
2018-09-02T02:03:11.923Z,23.94
2018-09-02T02:04:11.866Z,24.09
2018-09-02T02:05:11.796Z,24.06
2018-09-02T02:06:11.724Z,24.09
2018-09-02T02:07:11.652Z,24.09
2018-09-02T02:08:11.603Z,24.09
2018-09-02T02:09:11.540Z,24.18
2018-09-02T02:10:11.479Z,24.09
2018-09-02T02:11:11.413Z,24.09
2018-09-02T02:12:11.356Z,24.00
2018-09-02T02:13:11.292Z,24.02
2018-09-02T02:14:11.221Z,24.05
2018-09-02T02:15:11.156Z,24.06
2018-09-02T02:16:11.078Z,23.88
2018-09-02T02:17:11.024Z,23.97
2018-09-02T02:18:10.973Z,23.91
2018-09-02T02:19:10.912Z,24.03
2018-09-02T02:20:10.834Z,23.95
2018-09-02T02:21:10.777Z,23.95
2018-09-02T02:22:10.701Z,23.90
2018-09-02T02:23:10.636Z,23.91
2018-09-02T02:24:10.577Z,23.95
2018-09-02T02:25:10.518Z,24.03
2018-09-02T02:26:10.459Z,24.09
2018-09-02T02:27:10.393Z,24.03
2018-09-02T02:28:10.343Z,24.06
2018-09-02T02:29:10.248Z,24.06
2018-09-02T02:30:10.203Z,24.02
2018-09-02T02:31:10.139Z,23.95
2018-09-02T02:32:10.069Z,23.90
2018-09-02T02:33:10.013Z,23.79
2018-09-02T02:34:09.932Z,23.80
2018-09-02T02:35:09.864Z,23.80
2018-09-02T02:36:09.815Z,23.78
2018-09-02T02:37:09.750Z,23.90
2018-09-02T02:38:09.685Z,23.93
2018-09-02T02:39:09.628Z,23.90
2018-09-02T02:40:09.550Z,23.90
2018-09-02T02:41:09.490Z,23.85
2018-09-02T02:42:09.421Z,23.87
2018-09-02T02:43:09.362Z,23.88
2018-09-02T02:44:09.301Z,23.79
2018-09-02T02:45:09.237Z,23.84
2018-09-02T02:46:09.186Z,23.91
2018-09-02T02:47:09.124Z,23.95
2018-09-02T02:48:09.050Z,24.02
2018-09-02T02:49:08.992Z,24.05
2018-09-02T02:50:08.919Z,24.02
2018-09-02T02:51:08.855Z,24.02
2018-09-02T02:52:08.780Z,24.05
2018-09-02T02:53:08.736Z,24.09
2018-09-02T02:54:08.664Z,23.98
2018-09-02T02:55:08.597Z,23.95
2018-09-02T02:56:08.526Z,23.90
2018-09-02T02:57:08.461Z,23.85
2018-09-02T02:58:08.401Z,23.73
2018-09-02T02:59:08.332Z,23.73
2018-09-02T03:00:08.286Z,23.68
2018-09-02T03:01:08.219Z,23.76
2018-09-02T03:02:08.150Z,23.78
2018-09-02T03:03:08.097Z,23.76
2018-09-02T03:04:08.031Z,23.76
2018-09-02T03:05:07.957Z,23.78
2018-09-02T03:06:07.899Z,23.73
2018-09-02T03:07:07.830Z,23.66
2018-09-02T03:08:07.772Z,23.58
2018-09-02T03:09:07.689Z,23.57
2018-09-02T03:10:07.634Z,23.57
2018-09-02T03:11:07.569Z,23.47
2018-09-02T03:12:07.517Z,23.43
2018-09-02T03:13:07.446Z,23.47
2018-09-02T03:14:07.386Z,23.42
2018-09-02T03:15:07.323Z,23.38
2018-09-02T03:16:07.262Z,23.39
2018-09-02T03:17:07.182Z,23.33
2018-09-02T03:18:07.135Z,23.40
2018-09-02T03:19:07.061Z,23.46
2018-09-02T03:20:06.995Z,23.50
2018-09-02T03:21:06.933Z,23.51
2018-09-02T03:22:06.860Z,23.53
2018-09-02T03:23:06.799Z,23.60
2018-09-02T03:24:06.742Z,23.57
2018-09-02T03:25:06.677Z,23.55
2018-09-02T03:26:06.616Z,23.57
2018-09-02T03:27:06.549Z,23.53
2018-09-02T03:28:06.477Z,23.55
2018-09-02T03:29:06.416Z,23.51
2018-09-02T03:30:06.384Z,23.38
2018-09-02T03:31:06.290Z,23.47
2018-09-02T03:32:06.232Z,23.46
2018-09-02T03:33:06.176Z,23.46
2018-09-02T03:34:06.093Z,23.46
2018-09-02T03:35:06.059Z,23.36
2018-09-02T03:36:05.977Z,23.35
2018-09-02T03:37:05.943Z,23.36
2018-09-02T03:38:05.845Z,23.38
2018-09-02T03:39:05.783Z,23.38
2018-09-02T03:40:05.710Z,23.35
2018-09-02T03:41:05.663Z,23.35
2018-09-02T03:42:05.579Z,23.39
2018-09-02T03:43:05.545Z,23.28
2018-09-02T03:44:05.470Z,23.23
2018-09-02T03:45:05.399Z,23.32
2018-09-02T03:46:05.333Z,23.28
2018-09-02T03:47:05.269Z,23.17
2018-09-02T03:48:05.190Z,23.17
2018-09-02T03:49:05.130Z,23.20
2018-09-02T03:50:05.071Z,23.09
2018-09-02T03:51:05.009Z,23.16
2018-09-02T03:52:04.930Z,23.16
2018-09-02T03:53:04.872Z,23.20
2018-09-02T03:54:04.822Z,23.19
2018-09-02T03:55:04.740Z,23.22
2018-09-02T03:56:04.692Z,23.22
2018-09-02T03:57:04.626Z,23.16
2018-09-02T03:58:04.552Z,23.09
2018-09-02T03:59:04.510Z,23.16
2018-09-02T04:00:04.433Z,23.16
2018-09-02T04:01:04.373Z,23.22
2018-09-02T04:02:04.305Z,23.20
2018-09-02T04:03:04.234Z,23.10
2018-09-02T04:04:04.162Z,23.09
2018-09-02T04:05:04.107Z,23.22
2018-09-02T04:06:04.048Z,23.20
2018-09-02T04:07:03.981Z,23.25
2018-09-02T04:08:03.906Z,23.20
2018-09-02T04:09:03.855Z,23.13
2018-09-02T04:10:03.776Z,23.15
2018-09-02T04:11:03.712Z,23.13
2018-09-02T04:12:03.652Z,23.09
2018-09-02T04:13:03.594Z,23.09
2018-09-02T04:14:03.527Z,22.92
2018-09-02T04:15:03.464Z,22.97
2018-09-02T04:16:03.406Z,22.92
2018-09-02T04:17:03.326Z,22.85
2018-09-02T04:18:03.261Z,22.88
2018-09-02T04:19:03.218Z,22.79
2018-09-02T04:20:03.140Z,22.83
2018-09-02T04:21:03.076Z,22.80
2018-09-02T04:22:03.019Z,22.85
2018-09-02T04:23:02.936Z,22.88
2018-09-02T04:24:02.879Z,22.90
2018-09-02T04:25:02.819Z,22.88
2018-09-02T04:26:02.752Z,22.91
2018-09-02T04:27:02.689Z,22.86
2018-09-02T04:28:02.633Z,22.90
2018-09-02T04:29:02.551Z,22.77
2018-09-02T04:30:02.492Z,22.83
2018-09-02T04:31:02.422Z,22.79
2018-09-02T04:32:02.367Z,22.85
2018-09-02T04:33:02.306Z,22.90
2018-09-02T04:34:02.237Z,22.92
2018-09-02T04:35:02.170Z,22.91
2018-09-02T04:36:02.119Z,22.88
2018-09-02T04:37:02.035Z,22.83
2018-09-02T04:38:01.983Z,22.82
2018-09-02T04:39:01.914Z,22.83
2018-09-02T04:40:01.841Z,22.82
2018-09-02T04:41:01.781Z,22.79
2018-09-02T04:42:01.715Z,22.85
2018-09-02T04:43:01.666Z,22.85
2018-09-02T04:44:01.589Z,22.94
2018-09-02T04:45:01.540Z,22.95
2018-09-02T04:46:01.465Z,22.97
2018-09-02T04:47:01.391Z,22.95
2018-09-02T04:48:01.333Z,22.91
2018-09-02T04:49:01.267Z,22.82
2018-09-02T04:50:01.212Z,22.88
2018-09-02T04:51:01.148Z,22.86
2018-09-02T04:52:01.079Z,22.88
2018-09-02T04:53:01.010Z,23.00
2018-09-02T04:54:00.936Z,23.00
2018-09-02T04:55:00.875Z,22.98
2018-09-02T04:56:00.820Z,22.98
2018-09-02T04:57:00.751Z,23.01
2018-09-02T04:58:00.686Z,22.97
2018-09-02T04:59:00.617Z,22.94
2018-09-02T05:00:00.575Z,22.92
2018-09-02T05:01:00.487Z,22.94
2018-09-02T05:02:00.432Z,22.91
2018-09-02T05:03:00.366Z,22.92
2018-09-02T05:04:00.293Z,22.97
2018-09-02T05:05:00.245Z,22.94
2018-09-02T05:06:00.163Z,22.88
2018-09-02T05:07:00.097Z,22.88
2018-09-02T05:08:00.050Z,22.90
2018-09-02T05:08:59.973Z,22.85
2018-09-02T05:09:59.926Z,22.85
2018-09-02T05:10:59.853Z,22.88
2018-09-02T05:11:59.785Z,22.86
2018-09-02T05:12:59.727Z,22.90
2018-09-02T05:13:59.727Z,22.94
2018-09-02T05:14:59.592Z,22.83
2018-09-02T05:15:59.524Z,22.88
2018-09-02T05:16:59.452Z,22.90
2018-09-02T05:17:59.391Z,22.95
2018-09-02T05:18:59.339Z,22.92
2018-09-02T05:19:59.267Z,23.04
2018-09-02T05:20:59.201Z,22.95
2018-09-02T05:21:59.137Z,22.95
2018-09-02T05:22:59.084Z,22.85
2018-09-02T05:23:58.998Z,22.82
2018-09-02T05:24:58.939Z,22.83
2018-09-02T05:25:58.888Z,22.73
2018-09-02T05:26:58.815Z,22.79
2018-09-02T05:27:58.742Z,22.80
2018-09-02T05:28:58.677Z,22.67
2018-09-02T05:29:58.612Z,22.77
2018-09-02T05:30:58.547Z,22.77
2018-09-02T05:31:58.495Z,22.68
2018-09-02T05:32:58.428Z,22.85
2018-09-02T05:33:58.367Z,22.82
2018-09-02T05:34:58.300Z,22.83
2018-09-02T05:35:58.235Z,22.85
2018-09-02T05:36:58.260Z,22.90
2018-09-02T05:37:58.102Z,22.94
2018-09-02T05:38:58.034Z,22.98
2018-09-02T05:39:57.974Z,22.95
2018-09-02T05:40:57.910Z,22.98
2018-09-02T05:41:57.843Z,22.98
2018-09-02T05:42:57.777Z,23.04
2018-09-02T05:43:57.757Z,23.04
2018-09-02T05:44:57.657Z,23.04
2018-09-02T05:45:57.594Z,23.10
2018-09-02T05:46:57.529Z,23.01
2018-09-02T05:47:57.457Z,23.12
2018-09-02T05:48:57.407Z,23.12
2018-09-02T05:49:57.347Z,23.09
2018-09-02T05:50:57.279Z,23.10
2018-09-02T05:51:57.200Z,23.12
2018-09-02T05:52:57.142Z,23.10
2018-09-02T05:53:57.074Z,23.20
2018-09-02T05:54:57.007Z,23.05
2018-09-02T05:55:56.937Z,23.09
2018-09-02T05:56:56.892Z,23.19
2018-09-02T05:57:56.823Z,23.15
2018-09-02T05:58:56.756Z,23.31
2018-09-02T05:59:56.706Z,23.28
2018-09-02T06:00:56.637Z,23.15
2018-09-02T06:01:56.549Z,23.01
2018-09-02T06:02:56.588Z,23.01
2018-09-02T06:03:56.432Z,23.04
2018-09-02T06:04:56.372Z,23.01
2018-09-02T06:05:56.291Z,23.02
2018-09-02T06:06:56.229Z,22.97
2018-09-02T06:07:56.180Z,23.02
2018-09-02T06:08:56.108Z,23.02
2018-09-02T06:09:56.043Z,23.02
2018-09-02T06:10:55.979Z,23.01
2018-09-02T06:11:55.910Z,22.98
2018-09-02T06:12:55.861Z,22.97
2018-09-02T06:13:55.790Z,22.97
2018-09-02T06:14:55.729Z,22.86
2018-09-02T06:15:55.654Z,22.76
2018-09-02T06:16:55.596Z,22.79
2018-09-02T06:17:55.517Z,22.70
2018-09-02T06:18:55.476Z,22.65
2018-09-02T06:19:55.404Z,22.70
2018-09-02T06:20:55.337Z,22.67
2018-09-02T06:21:55.276Z,22.76
2018-09-02T06:22:55.209Z,22.73
2018-09-02T06:23:55.133Z,22.67
2018-09-02T06:24:55.071Z,22.79
2018-09-02T06:25:55.013Z,22.90
2018-09-02T06:26:54.939Z,23.09
2018-09-02T06:27:54.898Z,23.09
2018-09-02T06:28:54.823Z,23.01
2018-09-02T06:29:54.830Z,23.15
2018-09-02T06:30:54.689Z,23.12
2018-09-02T06:31:54.632Z,23.05
2018-09-02T06:32:54.642Z,22.98
2018-09-02T06:33:54.511Z,23.19
2018-09-02T06:34:54.441Z,23.16
2018-09-02T06:35:54.371Z,23.19
2018-09-02T06:36:54.303Z,23.31
2018-09-02T06:37:54.247Z,23.39
2018-09-02T06:38:54.178Z,23.36
2018-09-02T06:39:54.110Z,23.35
2018-09-02T06:40:54.056Z,23.48
2018-09-02T06:41:53.977Z,23.53
2018-09-02T06:42:53.922Z,23.68
2018-09-02T06:43:53.865Z,23.73
2018-09-02T06:44:53.801Z,23.79
2018-09-02T06:45:53.779Z,23.79
2018-09-02T06:46:53.674Z,23.69
2018-09-02T06:47:53.610Z,23.69
2018-09-02T06:48:53.544Z,23.75
2018-09-02T06:49:53.479Z,23.78
2018-09-02T06:50:53.412Z,23.68
2018-09-02T06:51:53.343Z,23.66
2018-09-02T06:52:53.298Z,23.70
2018-09-02T06:53:53.222Z,23.70
2018-09-02T06:54:53.151Z,23.75
2018-09-02T06:55:53.098Z,23.79
2018-09-02T06:56:53.034Z,23.76
2018-09-02T06:57:52.970Z,23.90
2018-09-02T06:58:52.906Z,23.84
2018-09-02T06:59:52.828Z,23.79
2018-09-02T07:00:52.773Z,23.72
2018-09-02T07:01:52.721Z,23.87
2018-09-02T07:02:52.658Z,23.94
2018-09-02T07:03:52.592Z,23.91
2018-09-02T07:04:52.525Z,24.02
2018-09-02T07:05:52.475Z,24.09
2018-09-02T07:06:52.455Z,24.20
2018-09-02T07:07:52.336Z,24.20
2018-09-02T07:08:52.280Z,24.16
2018-09-02T07:09:52.209Z,24.20
2018-09-02T07:10:52.143Z,24.22
2018-09-02T07:11:52.089Z,24.21
2018-09-02T07:12:52.030Z,24.32
2018-09-02T07:13:51.964Z,24.46
2018-09-02T07:14:51.895Z,24.37
2018-09-02T07:15:51.849Z,24.39
2018-09-02T07:16:51.763Z,24.35
2018-09-02T07:17:51.710Z,24.39
2018-09-02T07:18:51.644Z,24.40
2018-09-02T07:19:51.577Z,24.09
2018-09-02T07:20:51.532Z,24.06
2018-09-02T07:21:51.441Z,23.93
2018-09-02T07:22:51.382Z,23.97
2018-09-02T07:23:51.334Z,23.97
2018-09-02T07:24:51.271Z,24.03
2018-09-02T07:25:51.214Z,24.00
2018-09-02T07:26:51.142Z,24.20
2018-09-02T07:27:51.073Z,24.08
2018-09-02T07:28:51.008Z,24.16
2018-09-02T07:29:50.947Z,24.13
2018-09-02T07:30:50.881Z,24.09
2018-09-02T07:31:50.836Z,24.02
2018-09-02T07:32:50.764Z,24.03
2018-09-02T07:33:50.693Z,24.16
2018-09-02T07:34:50.631Z,24.21
2018-09-02T07:35:50.574Z,24.34
2018-09-02T07:36:50.522Z,24.32
2018-09-02T07:37:50.451Z,24.53
2018-09-02T07:38:50.388Z,24.53
2018-09-02T07:39:50.323Z,24.64
2018-09-02T07:40:50.274Z,24.58
2018-09-02T07:41:50.197Z,24.64
2018-09-02T07:42:50.131Z,24.65
2018-09-02T07:43:50.170Z,24.71
2018-09-02T07:44:50.020Z,24.78
2018-09-02T07:45:49.956Z,24.77
2018-09-02T07:46:49.896Z,24.87
2018-09-02T07:47:49.839Z,24.88
2018-09-02T07:48:49.776Z,24.90
2018-09-02T07:49:49.710Z,24.87
2018-09-02T07:50:49.642Z,24.81
2018-09-02T07:51:49.569Z,24.64
2018-09-02T07:52:49.511Z,24.57
2018-09-02T07:53:49.456Z,24.68
2018-09-02T07:54:49.379Z,24.76
2018-09-02T07:55:49.333Z,24.85
2018-09-02T07:56:49.299Z,24.90
2018-09-02T07:57:49.204Z,24.90
2018-09-02T07:58:49.146Z,24.96
2018-09-02T07:59:49.073Z,24.93
2018-09-02T08:00:49.016Z,24.96
2018-09-02T08:01:48.947Z,24.95
2018-09-02T08:02:48.978Z,25.02
2018-09-02T08:03:48.834Z,25.03
2018-09-02T08:04:48.772Z,24.96
2018-09-02T08:05:48.706Z,25.08
2018-09-02T08:06:48.641Z,25.10
2018-09-02T08:07:48.592Z,25.30
2018-09-02T08:08:48.529Z,25.24
2018-09-02T08:09:48.460Z,25.32
2018-09-02T08:10:48.402Z,25.25
2018-09-02T08:11:48.341Z,25.17
2018-09-02T08:12:48.328Z,25.18
2018-09-02T08:13:48.219Z,25.15
2018-09-02T08:14:48.160Z,25.20
2018-09-02T08:15:48.123Z,25.27
2018-09-02T08:16:48.032Z,25.40
2018-09-02T08:17:47.963Z,25.47
2018-09-02T08:18:47.891Z,25.45
2018-09-02T08:19:47.893Z,25.43
2018-09-02T08:20:47.788Z,25.50
2018-09-02T08:21:47.721Z,25.39
2018-09-02T08:22:47.673Z,25.33
2018-09-02T08:23:47.599Z,25.05
2018-09-02T08:24:47.533Z,24.93
2018-09-02T08:25:47.480Z,25.05
2018-09-02T08:26:47.476Z,24.76
2018-09-02T08:27:47.344Z,24.76
2018-09-02T08:28:47.300Z,24.65
2018-09-02T08:29:47.238Z,24.76
2018-09-02T08:30:47.164Z,24.81
2018-09-02T08:31:47.108Z,24.76
2018-09-02T08:32:47.088Z,24.93
2018-09-02T08:33:46.979Z,24.98
2018-09-02T08:34:46.923Z,25.08
2018-09-02T08:35:46.868Z,25.17
2018-09-02T08:36:46.789Z,25.25
2018-09-02T08:37:46.735Z,25.27
2018-09-02T08:38:46.687Z,25.38
2018-09-02T08:39:46.604Z,25.45
2018-09-02T08:40:46.552Z,25.67
2018-09-02T08:41:46.504Z,25.62
2018-09-02T08:42:46.437Z,25.33
2018-09-02T08:43:46.367Z,25.38
2018-09-02T08:44:46.302Z,25.27
2018-09-02T08:45:46.240Z,25.35
2018-09-02T08:46:46.186Z,25.35
2018-09-02T08:47:46.109Z,25.35
2018-09-02T08:48:46.047Z,25.32
2018-09-02T08:49:45.992Z,25.30
2018-09-02T08:50:45.931Z,25.09
2018-09-02T08:51:45.870Z,25.03
2018-09-02T08:52:45.815Z,25.05
2018-09-02T08:53:45.741Z,25.14
2018-09-02T08:54:45.683Z,25.21
2018-09-02T08:55:45.631Z,25.33
2018-09-02T08:56:45.564Z,25.36
2018-09-02T08:57:45.507Z,25.46
2018-09-02T08:58:45.440Z,25.46
2018-09-02T08:59:45.373Z,25.61
2018-09-02T09:00:45.315Z,25.72
2018-09-02T09:01:45.276Z,25.88
2018-09-02T09:02:45.205Z,25.92
2018-09-02T09:03:45.152Z,25.99
2018-09-02T09:04:45.078Z,25.97
2018-09-02T09:05:45.024Z,26.06
2018-09-02T09:06:44.950Z,26.10
2018-09-02T09:07:45.101Z,26.02
2018-09-02T09:08:45.132Z,26.18
2018-09-02T09:09:44.803Z,26.21
2018-09-02T09:10:44.710Z,26.18
2018-09-02T09:11:44.633Z,26.18
2018-09-02T09:12:44.577Z,26.23
2018-09-02T09:13:44.533Z,26.28
2018-09-02T09:14:44.453Z,26.37
2018-09-02T09:15:44.411Z,26.43
2018-09-02T09:16:44.472Z,26.55
2018-09-02T09:17:44.283Z,26.43
2018-09-02T09:18:44.211Z,26.45
2018-09-02T09:19:44.159Z,26.48
2018-09-02T09:20:44.097Z,26.50
2018-09-02T09:21:44.180Z,26.54
2018-09-02T09:22:44.021Z,26.40
2018-09-02T09:23:43.913Z,26.18
2018-09-02T09:24:43.859Z,26.30
2018-09-02T09:25:43.794Z,26.37
2018-09-02T09:26:43.727Z,26.44
2018-09-02T09:27:43.664Z,26.40
2018-09-02T09:28:43.625Z,26.37
2018-09-02T09:29:43.545Z,26.40
2018-09-02T09:30:43.492Z,26.50
2018-09-02T09:31:43.445Z,26.54
2018-09-02T09:32:43.373Z,26.57
2018-09-02T09:33:43.319Z,26.57
2018-09-02T09:34:43.257Z,26.54
2018-09-02T09:35:43.183Z,26.62
2018-09-02T09:36:43.122Z,26.67
2018-09-02T09:37:43.067Z,26.75
2018-09-02T09:38:43.012Z,26.75
2018-09-02T09:39:42.967Z,26.73
2018-09-02T09:40:42.932Z,26.80
2018-09-02T09:41:42.825Z,26.70
2018-09-02T09:42:42.770Z,26.72
2018-09-02T09:43:42.715Z,26.77
2018-09-02T09:44:42.652Z,26.75
2018-09-02T09:45:42.611Z,26.82
2018-09-02T09:46:42.516Z,26.89
2018-09-02T09:47:42.472Z,26.87
2018-09-02T09:48:42.416Z,26.87
2018-09-02T09:49:42.365Z,26.87
2018-09-02T09:50:42.288Z,26.94
2018-09-02T09:51:42.229Z,26.94
2018-09-02T09:52:42.169Z,26.99
2018-09-02T09:53:42.103Z,26.87
2018-09-02T09:54:42.036Z,26.94
2018-09-02T09:55:41.998Z,26.94
2018-09-02T09:56:41.924Z,26.69
2018-09-02T09:57:41.865Z,26.63
2018-09-02T09:58:41.813Z,26.67
2018-09-02T09:59:41.729Z,26.73
2018-09-02T10:00:41.675Z,26.87
2018-09-02T10:01:41.632Z,26.92
2018-09-02T10:02:41.564Z,26.95
2018-09-02T10:03:41.520Z,26.99
2018-09-02T10:04:41.444Z,27.02
2018-09-02T10:05:41.387Z,27.06
2018-09-02T10:06:41.314Z,27.17
2018-09-02T10:07:41.269Z,27.18
2018-09-02T10:08:41.187Z,27.10
2018-09-02T10:09:41.132Z,27.28
2018-09-02T10:10:41.084Z,27.32
2018-09-02T10:11:41.123Z,27.25
2018-09-02T10:12:40.953Z,27.34
2018-09-02T10:13:40.911Z,27.29
2018-09-02T10:14:40.836Z,27.27
2018-09-02T10:15:40.781Z,27.17
2018-09-02T10:16:40.722Z,27.13
2018-09-02T10:17:40.665Z,27.18
2018-09-02T10:18:40.607Z,27.14
2018-09-02T10:19:40.543Z,27.19
2018-09-02T10:20:40.486Z,27.17
2018-09-02T10:21:40.469Z,27.27
2018-09-02T10:22:40.389Z,27.18
2018-09-02T10:23:40.307Z,27.18
2018-09-02T10:24:40.227Z,27.21
2018-09-02T10:25:40.181Z,27.14
2018-09-02T10:26:40.119Z,27.22
2018-09-02T10:27:40.068Z,27.19
2018-09-02T10:28:39.988Z,27.12
2018-09-02T10:29:39.927Z,27.04
2018-09-02T10:30:39.876Z,27.09
2018-09-02T10:31:39.826Z,27.17
2018-09-02T10:32:39.758Z,27.17
2018-09-02T10:33:39.700Z,27.24
2018-09-02T10:34:39.635Z,27.37
2018-09-02T10:35:39.660Z,27.36
2018-09-02T10:36:39.525Z,27.39
2018-09-02T10:37:39.446Z,27.31
2018-09-02T10:38:39.397Z,27.44
2018-09-02T10:39:39.335Z,27.44
2018-09-02T10:40:39.276Z,27.46
2018-09-02T10:41:39.217Z,27.43
2018-09-02T10:42:39.163Z,27.47
2018-09-02T10:43:39.084Z,27.50
2018-09-02T10:44:39.038Z,27.41
2018-09-02T10:45:38.977Z,27.44
2018-09-02T10:46:38.923Z,27.55
2018-09-02T10:47:38.844Z,27.47
2018-09-02T10:48:38.781Z,27.57
2018-09-02T10:49:38.761Z,27.70
2018-09-02T10:50:38.674Z,27.67
2018-09-02T10:51:38.610Z,27.62
2018-09-02T10:52:38.543Z,27.63
2018-09-02T10:53:38.493Z,27.77
2018-09-02T10:54:38.440Z,27.72
2018-09-02T10:55:38.372Z,27.57
2018-09-02T10:56:38.315Z,27.60
2018-09-02T10:57:38.257Z,27.57
2018-09-02T10:58:38.177Z,27.63
2018-09-02T10:59:38.179Z,27.59
2018-09-02T11:00:38.073Z,27.65
2018-09-02T11:01:38.011Z,27.79
2018-09-02T11:02:37.948Z,27.77
2018-09-02T11:03:37.885Z,27.72
2018-09-02T11:04:37.828Z,27.65
2018-09-02T11:05:37.764Z,27.75
2018-09-02T11:06:37.712Z,27.82
2018-09-02T11:07:37.699Z,27.85
2018-09-02T11:08:37.648Z,27.84
2018-09-02T11:09:37.543Z,27.85
2018-09-02T11:10:37.466Z,27.93
2018-09-02T11:11:37.405Z,27.94
2018-09-02T11:12:37.350Z,27.93
2018-09-02T11:13:37.445Z,27.90
2018-09-02T11:14:37.238Z,27.94
2018-09-02T11:15:37.197Z,27.96
2018-09-02T11:16:37.108Z,27.92
2018-09-02T11:17:37.049Z,28.00
2018-09-02T11:18:37.003Z,28.00
2018-09-02T11:19:36.947Z,28.02
2018-09-02T11:20:36.876Z,28.00
2018-09-02T11:21:36.827Z,28.03
2018-09-02T11:22:36.743Z,27.99
2018-09-02T11:23:36.683Z,28.06
2018-09-02T11:24:36.638Z,28.06
2018-09-02T11:25:36.579Z,28.09
2018-09-02T11:26:36.510Z,28.06
2018-09-02T11:27:36.448Z,28.11
2018-09-02T11:28:36.380Z,28.07
2018-09-02T11:29:36.326Z,28.11
2018-09-02T11:30:36.270Z,28.14
2018-09-02T11:31:36.214Z,28.15
2018-09-02T11:32:36.142Z,28.19
2018-09-02T11:33:36.237Z,28.18
2018-09-02T11:34:36.036Z,28.15
2018-09-02T11:35:35.969Z,28.22
2018-09-02T11:36:35.915Z,28.21
2018-09-02T11:37:35.855Z,28.18
2018-09-02T11:38:35.784Z,28.19
2018-09-02T11:39:35.749Z,28.22
2018-09-02T11:40:35.684Z,28.30
2018-09-02T11:41:35.627Z,28.33
2018-09-02T11:42:35.554Z,28.43
2018-09-02T11:43:35.493Z,28.39
2018-09-02T11:44:35.433Z,28.43
2018-09-02T11:45:35.373Z,28.48
2018-09-02T11:46:35.333Z,28.39
2018-09-02T11:47:35.245Z,28.49
2018-09-02T11:48:35.193Z,28.40
2018-09-02T11:49:35.132Z,28.44
2018-09-02T11:50:35.083Z,28.25
2018-09-02T11:51:35.009Z,28.22
2018-09-02T11:52:34.941Z,28.18
2018-09-02T11:53:34.904Z,28.24
2018-09-02T11:54:34.828Z,28.22
2018-09-02T11:55:34.796Z,28.24
2018-09-02T11:56:34.713Z,28.19
2018-09-02T11:57:34.712Z,28.27
2018-09-02T11:58:34.605Z,28.22
2018-09-02T11:59:34.539Z,28.27
2018-09-02T12:00:34.461Z,28.29
2018-09-02T12:01:34.422Z,28.25
2018-09-02T12:02:34.388Z,28.25
2018-09-02T12:03:34.287Z,28.29
2018-09-02T12:04:34.222Z,28.18
2018-09-02T12:05:34.172Z,28.27
2018-09-02T12:06:34.112Z,28.25
2018-09-02T12:07:34.074Z,28.31
2018-09-02T12:08:33.988Z,28.37
2018-09-02T12:09:33.936Z,28.41
2018-09-02T12:10:33.863Z,28.44
2018-09-02T12:11:33.831Z,28.40
2018-09-02T12:12:33.739Z,28.39
2018-09-02T12:13:33.704Z,28.33
2018-09-02T12:14:33.847Z,28.41
2018-09-02T12:15:33.570Z,28.33
2018-09-02T12:16:33.508Z,28.46
2018-09-02T12:17:33.445Z,28.39
2018-09-02T12:18:33.447Z,28.41
2018-09-02T12:19:33.336Z,28.44
2018-09-02T12:20:33.264Z,28.39
2018-09-02T12:21:33.210Z,28.41
2018-09-02T12:22:33.136Z,28.44
2018-09-02T12:23:33.080Z,28.41
2018-09-02T12:24:33.031Z,28.41
2018-09-02T12:25:32.971Z,28.41
2018-09-02T12:26:32.910Z,28.44
2018-09-02T12:27:32.846Z,28.40
2018-09-02T12:28:32.778Z,28.40
2018-09-02T12:29:32.727Z,28.44
2018-09-02T12:30:32.667Z,28.46
2018-09-02T12:31:32.628Z,28.41
2018-09-02T12:32:32.550Z,28.40
2018-09-02T12:33:32.489Z,28.54
2018-09-02T12:34:32.432Z,28.34
2018-09-02T12:35:32.349Z,28.41
2018-09-02T12:36:32.305Z,28.49
2018-09-02T12:37:32.245Z,28.51
2018-09-02T12:38:32.196Z,28.43
2018-09-02T12:39:32.127Z,28.55
2018-09-02T12:40:32.059Z,28.54
2018-09-02T12:41:32.015Z,28.66
2018-09-02T12:42:31.949Z,28.59
2018-09-02T12:43:31.886Z,28.58
2018-09-02T12:44:31.829Z,28.62
2018-09-02T12:45:31.761Z,28.59
2018-09-02T12:46:31.697Z,28.58
2018-09-02T12:47:31.657Z,28.58
2018-09-02T12:48:31.579Z,28.58
2018-09-02T12:49:31.521Z,28.68
2018-09-02T12:50:31.464Z,28.67
2018-09-02T12:51:31.404Z,28.73